Time;durP1;ratioP1;P1;durP2;ratioP2;P2;SDS_P1;SDS_P2;PMS_P1;PMS_P2;Temp;Humidity;BMP_temperature;BMP_pressure;BME280_temperature;BME280_humidity;BME280_pressure;Samples;Min_cycle;Max_cycle;Signal;HPM_P1;HPM_P2
2022/09/16 00:00:43;;;;;;;;;;;17.70;85.00;;;-151.14;100.00;62537.16;4197607;34;19910;-84
2022/09/16 00:03:11;;;;;;;;;;;17.70;84.80;;;-151.14;100.00;62537.16;4244256;33;19904;-84
2022/09/16 00:05:43;;;;;;;;;;;17.70;84.50;;;17.08;100.00;62537.16;4220718;34;19978;-84
2022/09/16 00:08:12;;;;;;;;;;;17.70;84.60;;;-151.14;100.00;62537.16;4243962;33;19903;-83
2022/09/16 00:10:41;;;;;;;;;;;17.70;84.60;;;-151.14;100.00;62537.16;4187760;34;19907;-83
2022/09/16 00:13:11;;;;;;;;;;;17.70;84.70;;;-151.14;100.00;62537.16;4228026;33;19984;-84
2022/09/16 00:15:43;;;;;;;;;;;17.70;84.60;;;-151.14;100.00;62537.16;4184481;33;19914;-84
2022/09/16 00:18:12;;;;;;;;;;;17.70;84.50;;;-151.14;100.00;62537.16;4232705;33;19910;-84
2022/09/16 00:20:44;;;;;;;;;;;17.70;85.00;;;;;;4232575;33;19903;-84
2022/09/16 00:23:13;;;;;;;;;;;17.70;85.20;;;-151.14;100.00;62537.16;4209433;33;19910;-84
2022/09/16 00:25:41;;;;;;;;;;;17.70;84.40;;;-151.14;100.00;62537.16;4232614;33;19910;-84
2022/09/16 00:28:11;;;;;;;;;;;17.70;84.60;;;-151.14;100.00;62537.16;4232410;33;19910;-84
2022/09/16 00:30:40;;;;;;;;;;;17.70;84.50;;;-151.14;100.00;62537.16;4209409;33;19940;-84
2022/09/16 00:33:08;;;;;;;;;;;17.70;84.80;;;-151.14;100.00;62537.16;4204566;34;19903;-84
2022/09/16 00:35:37;;;;;;;;;;;17.70;84.80;;;-151.14;100.00;62537.16;4204779;34;19907;-84
2022/09/16 00:38:06;;;;;;;;;;;17.70;84.80;;;-151.14;100.00;62537.16;4203156;34;19938;-83
2022/09/16 00:40:34;;;;;;;;;;;17.70;84.60;;;-151.14;100.00;62537.16;4227726;33;19904;-84
2022/09/16 00:43:03;;;;;;;;;;;17.70;84.90;;;-151.14;100.00;62537.16;4181638;34;19966;-84
2022/09/16 00:45:33;;;;;;;;;;;17.70;85.00;;;-151.14;100.00;62537.16;4205474;34;19903;-83
2022/09/16 00:48:04;;;;;;;;;;;17.70;84.90;;;-151.14;100.00;62537.16;4204248;34;19903;-84
2022/09/16 00:50:37;;;;;;;;;;;17.70;84.70;;;-151.14;100.00;62537.16;4206405;34;19982;-83
2022/09/16 00:53:06;;;;;;;;;;;17.70;84.70;;;-151.14;100.00;62537.16;4214217;34;19903;-84
2022/09/16 00:55:36;;;;;;;;;;;17.70;84.60;;;-151.14;100.00;62537.16;4216358;34;20126;-84
2022/09/16 00:58:07;;;;;;;;;;;17.70;84.70;;;16.90;100.00;62537.16;4218654;34;19903;-84
2022/09/16 01:00:38;;;;;;;;;;;17.70;84.80;;;-151.14;100.00;62537.16;4243675;33;20210;-83
2022/09/16 01:03:06;;;;;;;;;;;17.70;84.60;;;-151.14;100.00;62537.16;4243475;33;20084;-84
2022/09/16 01:05:35;;;;;;;;;;;17.70;84.40;;;-151.14;100.00;62537.16;4216711;34;20199;-84
2022/09/16 01:08:03;;;;;;;;;;;17.60;84.10;;;-151.14;100.00;62537.16;4220823;34;19904;-84
2022/09/16 01:10:32;;;;;;;;;;;17.70;84.40;;;16.91;100.00;62537.16;4243464;33;19910;-84
2022/09/16 01:13:02;;;;;;;;;;;17.70;84.80;;;16.91;100.00;83444.44;4196911;34;20195;-83
2022/09/16 01:15:34;;;;;;;;;;;17.70;84.40;;;-151.14;100.00;62537.16;4221052;33;19903;-84
2022/09/16 01:18:12;;;;;;;;;;;17.70;84.50;;;16.90;100.00;62537.16;4196823;34;19903;-84
2022/09/16 01:21:26;;;;;;;;;;;17.70;84.60;;;16.90;100.00;62537.16;4219933;34;19911;-84
2022/09/16 01:24:35;;;;;;;;;;;17.70;84.40;;;16.90;100.00;83443.03;4200425;34;19903;-83
2022/09/16 01:27:26;;;;;;;;;;;17.70;84.40;;;16.90;100.00;83443.75;4219875;34;19911;-84
2022/09/16 01:30:42;;;;;;;;;;;17.70;84.60;;;16.89;100.00;62537.16;4243302;33;20123;-83
2022/09/16 01:33:15;;;;;;;;;;;17.70;84.70;;;16.90;100.00;83443.75;4179460;34;20223;-83
2022/09/16 01:36:00;;;;;;;;;;;17.70;84.40;;;-151.14;100.00;62537.16;4181053;34;20003;-84
2022/09/16 01:38:55;;;;;;;;;;;17.70;84.70;;;16.89;100.00;83442.31;4227002;33;19903;-84
2022/09/16 01:41:28;;;;;;;;;;;17.70;84.30;;;-151.14;100.00;62537.16;4192923;34;19979;-83
2022/09/16 01:44:00;;;;;;;;;;;17.60;84.50;;;-151.14;100.00;62537.16;4243177;33;20195;-83
2022/09/16 01:46:35;;;;;;;;;;;17.70;84.60;;;16.90;100.00;83443.03;4219617;34;19903;-84
2022/09/16 01:49:12;;;;;;;;;;;17.70;84.80;;;16.88;100.00;62537.16;4219644;34;19903;-83
2022/09/16 01:51:44;;;;;;;;;;;17.60;84.20;;;16.90;100.00;62537.16;4243003;33;20221;-83
2022/09/16 01:54:13;;;;;;;;;;;17.70;84.20;;;16.90;100.00;62537.16;4233787;33;19903;-83
2022/09/16 01:56:44;;;;;;;;;;;17.70;84.20;;;-151.14;100.00;62537.16;4204618;34;20003;-84
2022/09/16 01:59:16;;;;;;;;;;;17.70;83.80;;;16.89;100.00;83442.31;4203589;34;19910;-84
2022/09/16 02:01:49;;;;;;;;;;;17.70;84.20;;;-151.14;100.00;62537.16;4226883;33;19910;-84
2022/09/16 02:04:22;;;;;;;;;;;17.70;84.20;;;16.89;100.00;62537.16;4180920;34;19903;-84
2022/09/16 02:06:50;;;;;;;;;;;17.70;84.30;;;16.87;100.00;62537.16;4226369;33;19903;-84
2022/09/16 02:09:22;;;;;;;;;;;17.70;84.20;;;17.08;100.00;62537.16;4203454;34;19927;-83
2022/09/16 02:11:51;;;;;;;;;;;17.60;84.00;;;-151.14;100.00;62537.16;4204598;34;19984;-83
2022/09/16 02:14:21;;;;;;;;;;;17.70;84.00;;;16.86;100.00;62537.16;4180563;34;20219;-84
2022/09/16 02:16:53;;;;;;;;;;;17.70;84.10;;;-151.14;100.00;62537.16;4180446;34;19903;-83
2022/09/16 02:19:24;;;;;;;;;;;17.70;84.20;;;-151.14;100.00;62537.16;4203716;34;20125;-83
2022/09/16 02:21:53;;;;;;;;;;;17.70;84.00;;;-151.14;100.00;62537.16;4226692;33;19962;-84
2022/09/16 02:24:22;;;;;;;;;;;17.70;84.20;;;-151.14;100.00;62537.16;4203435;34;20038;-84
2022/09/16 02:26:53;;;;;;;;;;;17.70;85.10;;;16.88;100.00;62537.16;4180322;34;19903;-84
2022/09/16 02:29:24;;;;;;;;;;;17.70;84.80;;;16.87;100.00;62537.16;4203294;34;19911;-84
2022/09/16 02:31:57;;;;;;;;;;;17.70;84.90;;;-151.14;100.00;62537.16;4204270;34;20230;-84
2022/09/16 02:34:28;;;;;;;;;;;17.60;84.30;;;-151.14;100.00;62537.16;4204299;34;20261;-83
2022/09/16 02:36:59;;;;;;;;;;;17.70;84.40;;;-151.14;100.00;62537.16;4203111;34;19910;-84
2022/09/16 02:39:29;;;;;;;;;;;17.70;84.40;;;16.87;100.00;62537.16;4203216;34;20211;-84
2022/09/16 02:41:58;;;;;;;;;;;17.70;85.00;;;-151.14;100.00;62537.16;4225932;33;19942;-83
2022/09/16 02:44:27;;;;;;;;;;;17.70;84.40;;;-151.14;100.00;62537.16;4203319;34;19910;-83
2022/09/16 02:47:00;;;;;;;;;;;17.70;84.50;;;-151.14;100.00;62537.16;4226288;33;19910;-83
2022/09/16 02:49:32;;;;;;;;;;;17.70;84.60;;;-151.14;100.00;62537.16;4203006;34;20233;-84
2022/09/16 02:52:06;;;;;;;;;;;17.70;84.10;;;-151.14;100.00;62537.16;4180240;34;20211;-83
2022/09/16 02:54:36;;;;;;;;;;;17.70;83.90;;;-151.14;100.00;62537.16;4180095;34;19925;-84
2022/09/16 02:57:05;;;;;;;;;;;17.70;84.40;;;-151.14;100.00;62537.16;4226363;33;19903;-84
2022/09/16 02:59:33;;;;;;;;;;;17.70;84.10;;;16.87;100.00;83440.19;4202899;34;20096;-84
2022/09/16 03:02:03;;;;;;;;;;;17.70;84.00;;;16.87;100.00;83440.19;4226332;33;20223;-84
2022/09/16 03:04:32;;;;;;;;;;;17.60;83.70;;;16.88;100.00;62537.16;4203031;34;19951;-83
2022/09/16 03:07:00;;;;;;;;;;;17.60;84.10;;;16.88;100.00;83441.59;4226227;33;20154;-84
2022/09/16 03:09:29;;;;;;;;;;;17.60;83.80;;;16.86;100.00;62537.16;4226099;33;20223;-83
2022/09/16 03:12:08;;;;;;;;;;;17.70;84.00;;;16.87;100.00;62537.16;4226237;33;19904;-84
2022/09/16 03:14:53;;;;;;;;;;;17.70;84.40;;;16.87;100.00;83439.47;4179974;34;19903;-83
2022/09/16 03:17:46;;;;;;;;;;;17.70;84.10;;;-151.14;100.00;62537.16;4226217;33;19903;-84
2022/09/16 03:20:19;;;;;;;;;;;17.70;84.40;;;16.88;100.00;62537.16;4228916;33;19904;-84
2022/09/16 03:22:51;;;;;;;;;;;17.70;84.30;;;16.87;100.00;83440.19;4228691;33;19903;-84
2022/09/16 03:25:30;;;;;;;;;;;17.70;84.80;;;-151.14;100.00;62537.16;4228751;33;19903;-84
2022/09/16 03:28:02;;;;;;;;;;;17.70;84.20;;;16.87;100.00;83440.19;4228404;33;19903;-84
2022/09/16 03:30:32;;;;;;;;;;;17.70;84.30;;;16.87;100.00;83439.47;4205422;33;19903;-84
2022/09/16 03:33:05;;;;;;;;;;;17.60;83.80;;;16.87;100.00;83439.47;4228622;33;20214;-84
2022/09/16 03:35:37;;;;;;;;;;;17.70;84.10;;;-151.14;100.00;62537.16;4233165;33;19962;-84
2022/09/16 03:38:05;;;;;;;;;;;17.70;84.00;;;16.87;100.00;83440.19;4233058;33;19918;-84
2022/09/16 03:40:34;;;;;;;;;;;17.60;83.90;;;16.87;100.00;62537.16;4233334;33;20236;-83
2022/09/16 03:43:10;;;;;;;;;;;17.70;83.80;;;16.88;100.00;83440.91;4209889;33;20129;-84
2022/09/16 03:45:41;;;;;;;;;;;17.70;83.80;;;16.87;100.00;83440.19;4233209;33;19903;-84
2022/09/16 03:48:11;;;;;;;;;;;17.70;84.00;;;16.86;100.00;83438.75;4232734;33;19995;-84
2022/09/16 03:50:40;;;;;;;;;;;17.60;83.50;;;16.87;100.00;83440.19;4233128;33;20017;-83
2022/09/16 03:53:08;;;;;;;;;;;17.60;83.50;;;-151.14;100.00;62537.16;4233056;33;19910;-84
2022/09/16 03:55:37;;;;;;;;;;;17.70;83.40;;;16.86;100.00;83438.75;4209813;33;20222;-84
2022/09/16 03:58:05;;;;;;;;;;;17.60;83.60;;;16.86;100.00;62537.16;4209527;33;20359;-84
2022/09/16 04:00:34;;;;;;;;;;;17.70;84.30;;;16.87;100.00;83440.19;4209739;33;19902;-84
2022/09/16 04:03:02;;;;;;;;;;;17.70;84.00;;;16.87;100.00;83439.47;4232935;33;19979;-84
2022/09/16 04:05:32;;;;;;;;;;;17.70;83.90;;;16.87;100.00;83440.19;4209657;33;19903;-84
2022/09/16 04:08:01;;;;;;;;;;;17.60;83.80;;;16.86;100.00;83438.75;4209367;33;20302;-84
2022/09/16 04:10:29;;;;;;;;;;;17.70;84.00;;;16.86;100.00;62537.16;4209594;33;19909;-84
2022/09/16 04:12:58;;;;;;;;;;;17.70;84.20;;;-151.14;100.00;62537.16;4256452;33;19995;-84
2022/09/16 04:15:27;;;;;;;;;;;17.70;84.30;;;16.87;100.00;83440.19;4209555;33;19902;-84
2022/09/16 04:17:56;;;;;;;;;;;17.60;84.00;;;16.86;100.00;83438.75;4232691;33;19903;-84
2022/09/16 04:20:24;;;;;;;;;;;17.70;84.10;;;16.87;100.00;83440.19;4209443;33;20006;-84
2022/09/16 04:22:54;;;;;;;;;;;17.60;84.00;;;16.86;100.00;83438.75;4256410;33;19917;-83
2022/09/16 04:25:23;;;;;;;;;;;17.60;84.40;;;16.87;100.00;83440.19;4256325;33;19902;-84
2022/09/16 04:27:52;;;;;;;;;;;17.70;84.30;;;-151.14;100.00;62537.16;4256140;33;19917;-84
2022/09/16 04:30:20;;;;;;;;;;;17.70;84.10;;;16.87;100.00;83440.19;4255860;33;20138;-84
2022/09/16 04:32:53;;;;;;;;;;;17.70;84.40;;;16.87;100.00;62537.16;4209475;33;20066;-84
2022/09/16 04:35:22;;;;;;;;;;;17.70;84.30;;;16.86;100.00;62537.16;4255908;33;19910;-84
2022/09/16 04:37:51;;;;;;;;;;;17.70;84.20;;;16.86;100.00;83438.75;4232381;33;19903;-83
2022/09/16 04:40:21;;;;;;;;;;;17.60;84.10;;;16.87;100.00;83439.47;4233515;33;19994;-84
2022/09/16 04:42:50;;;;;;;;;;;17.70;84.40;;;-151.14;100.00;62537.16;4209285;33;19903;-84
2022/09/16 04:45:19;;;;;;;;;;;17.60;84.00;;;16.87;100.00;83440.19;4209285;33;20006;-84
2022/09/16 04:47:47;;;;;;;;;;;17.70;84.10;;;16.88;100.00;83440.91;4255819;33;19999;-84
2022/09/16 04:50:16;;;;;;;;;;;17.70;84.30;;;16.88;100.00;83441.59;4232351;33;20002;-83
2022/09/16 04:52:44;;;;;;;;;;;17.70;84.10;;;-151.14;100.00;62537.16;4256079;33;19902;-84
2022/09/16 04:55:13;;;;;;;;;;;17.60;84.10;;;16.91;100.00;83444.44;4208933;33;19903;-84
2022/09/16 04:57:43;;;;;;;;;;;17.70;84.20;;;16.92;100.00;83445.88;4255709;33;19910;-84
2022/09/16 05:00:13;;;;;;;;;;;17.70;84.30;;;16.94;100.00;83448.72;4233272;33;20010;-84
2022/09/16 05:02:44;;;;;;;;;;;17.70;83.90;;;16.94;100.00;62537.16;4232622;33;20307;-84
2022/09/16 05:05:13;;;;;;;;;;;17.70;84.10;;;-151.14;100.00;62537.16;4255910;33;19917;-84
2022/09/16 05:07:41;;;;;;;;;;;17.80;84.10;;;16.98;100.00;83454.41;4255679;33;19903;-84
2022/09/16 05:10:10;;;;;;;;;;;17.80;83.80;;;16.99;100.00;83455.84;4255654;33;20191;-84
2022/09/16 05:12:39;;;;;;;;;;;17.80;83.80;;;-151.14;100.00;62537.16;4255725;33;20006;-84
2022/09/16 05:15:10;;;;;;;;;;;17.80;83.90;;;-151.14;100.00;62537.16;4208896;33;20021;-84
2022/09/16 05:17:38;;;;;;;;;;;17.80;83.70;;;17.01;100.00;83458.69;4208620;33;20130;-84
2022/09/16 05:20:08;;;;;;;;;;;17.80;83.80;;;-151.14;100.00;62537.16;4208870;33;19911;-84
2022/09/16 05:22:37;;;;;;;;;;;17.80;83.80;;;-151.14;100.00;62537.16;4208754;33;19903;-84
2022/09/16 05:25:06;;;;;;;;;;;17.90;84.10;;;-151.14;100.00;62537.16;4208885;33;20378;-84
2022/09/16 05:27:35;;;;;;;;;;;17.90;84.00;;;17.15;100.00;83477.91;4231905;33;20095;-84
2022/09/16 05:30:03;;;;;;;;;;;18.00;83.60;;;17.14;100.00;83477.16;4208678;33;19909;-84
2022/09/16 05:32:33;;;;;;;;;;;18.00;83.50;;;17.14;100.00;83476.47;4208672;33;19902;-84
2022/09/16 05:35:02;;;;;;;;;;;18.00;83.70;;;17.15;100.00;62537.16;4231920;33;20417;-84
2022/09/16 05:37:30;;;;;;;;;;;18.00;83.80;;;-151.14;100.00;62537.16;4208410;33;19910;-84
2022/09/16 05:39:59;;;;;;;;;;;18.10;83.60;;;-151.14;100.00;62537.16;4208642;33;20007;-84
2022/09/16 05:42:27;;;;;;;;;;;18.20;82.90;;;17.33;100.00;83502.78;4208058;33;19918;-84
2022/09/16 05:44:56;;;;;;;;;;;18.20;82.70;;;-151.14;100.00;62537.16;4208543;33;19903;-84
2022/09/16 05:47:25;;;;;;;;;;;18.30;82.80;;;-151.14;100.00;62537.16;4208334;33;19955;-84
2022/09/16 05:49:55;;;;;;;;;;;18.40;82.00;;;17.44;100.00;83518.41;4208497;33;19910;-84
2022/09/16 05:52:24;;;;;;;;;;;18.40;81.70;;;17.42;100.00;83514.88;4231759;33;19903;-84
2022/09/16 05:54:53;;;;;;;;;;;18.30;81.90;;;17.39;100.00;62537.16;4208398;33;19925;-84
2022/09/16 05:57:22;;;;;;;;;;;18.30;81.80;;;17.39;100.00;62537.16;4232526;33;19909;-84
2022/09/16 05:59:51;;;;;;;;;;;18.20;82.00;;;-151.14;100.00;62537.16;4208356;33;19910;-83
2022/09/16 06:02:19;;;;;;;;;;;18.20;82.00;;;17.30;100.00;83498.50;4208490;33;20134;-84
2022/09/16 06:04:48;;;;;;;;;;;18.20;82.50;;;17.25;100.00;83492.09;4231620;33;19987;-84
2022/09/16 06:07:18;;;;;;;;;;;18.10;82.80;;;17.24;100.00;83489.97;4231567;33;19902;-84
2022/09/16 06:09:47;;;;;;;;;;;18.10;83.00;;;17.23;100.00;83489.25;4231451;33;20339;-84
2022/09/16 06:12:15;;;;;;;;;;;18.10;83.10;;;17.24;100.00;83489.97;4254531;33;20263;-84
2022/09/16 06:14:44;;;;;;;;;;;18.00;83.00;;;-151.14;100.00;62537.16;4231507;33;19902;-84
2022/09/16 06:17:13;;;;;;;;;;;18.10;82.70;;;-151.14;100.00;62537.16;4208093;33;19910;-84
2022/09/16 06:19:41;;;;;;;;;;;18.10;82.60;;;17.28;100.00;83495.66;4208136;33;19990;-83
2022/09/16 06:22:10;;;;;;;;;;;18.10;82.80;;;17.26;100.00;83492.81;4208091;33;20214;-83
2022/09/16 06:24:40;;;;;;;;;;;18.10;82.60;;;17.26;100.00;83492.81;4254934;33;20122;-84
2022/09/16 06:27:08;;;;;;;;;;;18.10;82.70;;;17.26;100.00;83492.81;4231329;33;20222;-84
2022/09/16 06:29:39;;;;;;;;;;;18.10;83.00;;;-151.14;100.00;62537.16;4231666;33;22921;-84
2022/09/16 06:32:07;;;;;;;;;;;18.10;83.00;;;17.26;100.00;83492.81;4254812;33;19910;-84
2022/09/16 06:34:36;;;;;;;;;;;18.10;83.00;;;17.27;100.00;83494.97;4231326;33;19917;-84
2022/09/16 06:37:05;;;;;;;;;;;18.10;82.70;;;17.28;100.00;83496.38;4232057;33;19974;-85
2022/09/16 06:39:34;;;;;;;;;;;18.10;82.90;;;17.29;100.00;62537.16;4207962;33;19910;-84
2022/09/16 06:42:06;;;;;;;;;;;18.10;82.70;;;17.29;100.00;62537.16;4208018;33;20218;-84
2022/09/16 06:44:42;;;;;;;;;;;18.10;82.70;;;-151.14;100.00;62537.16;4231466;33;19903;-84
2022/09/16 06:47:10;;;;;;;;;;;18.10;82.90;;;17.35;100.00;83505.63;4254625;33;20257;-84
2022/09/16 06:49:39;;;;;;;;;;;18.20;83.10;;;17.35;100.00;83505.63;4231169;33;19999;-84
2022/09/16 06:52:10;;;;;;;;;;;18.20;83.00;;;17.36;100.00;83506.31;4207951;33;19902;-84
2022/09/16 06:54:39;;;;;;;;;;;18.20;82.90;;;17.36;100.00;83506.31;4231307;33;20169;-84
2022/09/16 06:57:08;;;;;;;;;;;18.20;83.10;;;17.35;100.00;83504.91;4255236;33;19984;-84
2022/09/16 06:59:37;;;;;;;;;;;18.20;83.00;;;17.33;100.00;62537.16;4231578;33;19903;-84
2022/09/16 07:02:05;;;;;;;;;;;18.20;83.00;;;-151.14;100.00;62537.16;4208248;33;19939;-84
2022/09/16 07:04:34;;;;;;;;;;;18.10;83.00;;;17.33;100.00;83502.78;4232431;33;19999;-84
2022/09/16 07:07:03;;;;;;;;;;;18.10;83.20;;;17.33;100.00;62537.16;4231977;33;19906;-84
2022/09/16 07:09:32;;;;;;;;;;;18.10;83.10;;;17.28;100.00;62537.16;4233410;33;20569;-84
2022/09/16 07:12:01;;;;;;;;;;;18.10;83.20;;;17.28;100.00;62537.16;4210046;33;20130;-84
2022/09/16 07:14:31;;;;;;;;;;;18.10;83.30;;;17.28;100.00;62537.16;4257059;33;20154;-84
2022/09/16 07:17:00;;;;;;;;;;;18.00;83.20;;;-151.14;100.00;62537.16;4251557;33;20011;-83
2022/09/16 07:19:29;;;;;;;;;;;18.10;83.30;;;17.28;100.00;83495.66;4205340;34;20288;-84
2022/09/16 07:21:57;;;;;;;;;;;18.10;83.50;;;17.23;100.00;83489.25;4204426;34;19910;-84
2022/09/16 07:24:26;;;;;;;;;;;18.10;83.70;;;17.23;100.00;83489.25;4182305;34;19903;-84
2022/09/16 07:26:55;;;;;;;;;;;18.10;83.60;;;17.24;100.00;83490.69;4181781;34;19903;-84
2022/09/16 07:29:23;;;;;;;;;;;18.10;83.50;;;-151.14;100.00;62537.16;4205715;34;20214;-84
2022/09/16 07:31:53;;;;;;;;;;;18.10;83.60;;;-151.14;100.00;62537.16;4182264;34;19910;-84
2022/09/16 07:34:22;;;;;;;;;;;18.10;83.80;;;17.41;100.00;62537.16;4194452;33;20091;-84
2022/09/16 07:36:50;;;;;;;;;;;18.10;83.80;;;17.28;100.00;62537.16;4234742;33;20146;-84
2022/09/16 07:39:20;;;;;;;;;;;18.10;83.70;;;-151.14;100.00;62537.16;4195728;34;19911;-84
2022/09/16 07:41:49;;;;;;;;;;;18.10;83.80;;;17.36;100.00;83506.31;4211012;34;19910;-84
2022/09/16 07:44:19;;;;;;;;;;;18.10;84.50;;;17.38;100.00;62537.16;4210027;33;19902;-85
2022/09/16 07:46:49;;;;;;;;;;;18.20;83.50;;;-151.14;100.00;62537.16;4264837;33;19902;-84
2022/09/16 07:49:19;;;;;;;;;;;18.20;83.40;;;-151.14;100.00;62537.16;4236819;33;19925;-84
2022/09/16 07:51:48;;;;;;;;;;;18.20;83.40;;;-151.14;100.00;62537.16;4235724;33;20018;-84
2022/09/16 07:54:17;;;;;;;;;;;18.30;83.40;;;-151.14;100.00;62537.16;4216501;33;19903;-84
2022/09/16 07:56:46;;;;;;;;;;;18.40;82.90;;;-151.14;100.00;62537.16;4239806;33;19903;-84
2022/09/16 07:59:16;;;;;;;;;;;18.40;82.60;;;-151.14;100.00;62537.16;4236022;33;19911;-85
2022/09/16 08:01:45;;;;;;;;;;;18.50;82.40;;;-151.14;100.00;62537.16;4236926;33;19902;-84
2022/09/16 08:04:14;;;;;;;;;;;18.50;82.40;;;-151.14;100.00;62537.16;4217476;33;19909;-85
2022/09/16 08:06:44;;;;;;;;;;;18.60;82.30;;;-151.14;100.00;62537.16;4266501;33;19903;-84
2022/09/16 08:09:13;;;;;;;;;;;18.60;82.00;;;60.43;100.00;62537.16;4220010;33;20198;-84
2022/09/16 08:11:42;;;;;;;;;;;18.70;81.90;;;-151.14;100.00;62537.16;4215876;33;19925;-85
2022/09/16 08:14:11;;;;;;;;;;;18.80;81.60;;;-151.14;100.00;62537.16;4270603;33;20233;-84
2022/09/16 08:16:39;;;;;;;;;;;18.80;82.10;;;-151.14;100.00;62537.16;4222625;33;19910;-85
2022/09/16 08:19:09;;;;;;;;;;;18.90;82.90;;;-151.14;100.00;62537.16;4245224;33;19911;-84
2022/09/16 08:21:37;;;;;;;;;;;18.90;81.70;;;-151.14;100.00;62537.16;4245998;33;19910;-85
2022/09/16 08:24:09;;;;;;;;;;;18.90;81.20;;;-151.14;100.00;62537.16;4246658;33;19903;-84
2022/09/16 08:26:37;;;;;;;;;;;19.00;81.20;;;-151.14;100.00;62537.16;4247613;33;19933;-85
2022/09/16 08:29:06;;;;;;;;;;;19.00;81.50;;;-151.14;100.00;62537.16;4211792;33;20191;-85
2022/09/16 08:31:34;;;;;;;;;;;19.00;81.80;;;-151.14;100.00;62537.16;4256296;33;19903;-85
2022/09/16 08:34:03;;;;;;;;;;;20.20;73.80;;;-151.14;100.00;62537.16;4210529;33;19903;-85
2022/09/16 08:36:32;;;;;;;;;;;19.10;79.70;;;-151.14;100.00;62537.16;4232570;33;19906;-85
2022/09/16 08:39:01;;;;;;;;;;;19.10;86.30;;;-151.14;100.00;62537.16;4210908;33;19910;-85
2022/09/16 08:42:17;;;;;;;;;;;19.00;91.10;;;-151.14;100.00;62537.16;4210509;33;20215;-86
2022/09/16 08:44:50;;;;;;;;;;;19.10;94.30;;;-151.14;100.00;62537.16;4189111;33;20110;-86
2022/09/16 08:47:32;;;;;;;;;;;19.10;96.40;;;18.35;100.00;62537.16;4215136;33;19903;-85
2022/09/16 08:50:01;;;;;;;;;;;19.20;96.50;;;-151.14;100.00;62537.16;4218416;33;19910;-85
2022/09/16 08:52:31;;;;;;;;;;;19.10;95.60;;;-151.14;100.00;62537.16;4219303;33;20214;-85
2022/09/16 08:55:03;;;;;;;;;;;19.10;96.70;;;-151.14;100.00;62537.16;4216781;33;19910;-85
2022/09/16 08:57:38;;;;;;;;;;;19.20;95.90;;;102.80;100.00;62537.16;4242600;33;20238;-85
2022/09/16 09:00:12;;;;;;;;;;;19.10;96.10;;;60.43;100.00;62537.16;4219542;33;19903;-85
2022/09/16 09:02:42;;;;;;;;;;;19.20;95.30;;;-151.14;100.00;62537.16;4219345;33;19910;-85
2022/09/16 09:05:26;;;;;;;;;;;19.20;89.10;;;18.34;100.00;62537.16;4268740;33;19922;-84
2022/09/16 09:08:10;;;;;;;;;;;19.10;76.90;;;-151.14;100.00;62537.16;4243405;33;19903;-85
2022/09/16 09:10:45;;;;;;;;;;;19.10;75.00;;;18.34;100.00;62537.16;4246607;33;19910;-85
2022/09/16 09:13:49;;;;;;;;;;;19.10;73.90;;;28.66;100.00;62537.16;4246593;33;19910;-85
2022/09/16 09:16:25;;;;;;;;;;;19.10;74.00;;;102.80;100.00;62537.16;4245305;33;20106;-84
2022/09/16 09:19:03;;;;;;;;;;;19.10;74.20;;;-151.14;100.00;62537.16;4238380;33;19903;-85
2022/09/16 09:21:37;;;;;;;;;;;19.10;74.00;;;102.80;100.00;62537.16;4223961;33;20106;-85
2022/09/16 09:24:31;;;;;;;;;;;19.20;74.00;;;-151.14;100.00;62537.16;4223039;33;19910;-85
2022/09/16 09:27:03;;;;;;;;;;;19.10;74.00;;;-151.14;100.00;62537.16;4243673;33;19903;-85
2022/09/16 09:29:42;;;;;;;;;;;19.10;74.10;;;102.80;100.00;62537.16;4223510;33;19903;-85
2022/09/16 09:32:19;;;;;;;;;;;19.10;74.20;;;18.31;100.00;62537.16;4221791;33;20226;-86
2022/09/16 09:35:03;;;;;;;;;;;19.10;74.10;;;-151.14;100.00;62537.16;4237103;33;19903;-84
2022/09/16 09:37:48;;;;;;;;;;;19.10;74.40;;;39.25;100.00;62537.16;4243893;33;19903;-85
2022/09/16 09:40:20;;;;;;;;;;;19.10;74.60;;;60.43;100.00;62537.16;4241662;33;20195;-85
2022/09/16 09:42:52;;;;;;;;;;;19.10;74.50;;;-151.14;100.00;62537.16;4213842;34;20110;-85
2022/09/16 09:45:26;;;;;;;;;;;19.10;74.60;;;39.25;100.00;62537.16;4242572;33;19909;-85
2022/09/16 09:47:57;;;;;;;;;;;19.10;74.50;;;28.66;100.00;62537.16;4246585;33;19910;-85
2022/09/16 09:50:29;;;;;;;;;;;19.10;74.40;;;60.43;100.00;62537.16;4219679;33;19910;-85
2022/09/16 09:53:05;;;;;;;;;;;19.10;74.30;;;102.80;100.00;62537.16;4242691;33;19903;-85
2022/09/16 09:55:35;;;;;;;;;;;19.10;74.40;;;-151.14;100.00;62537.16;4223503;33;19903;-85
2022/09/16 09:58:13;;;;;;;;;;;19.00;74.40;;;-151.14;100.00;62537.16;4223166;33;19911;-85
2022/09/16 10:00:44;;;;;;;;;;;19.00;74.50;;;-151.14;100.00;62537.16;4246728;33;19903;-85
2022/09/16 10:03:15;;;;;;;;;;;19.00;74.60;;;102.80;100.00;62537.16;4222734;33;19911;-85
2022/09/16 10:05:43;;;;;;;;;;;19.00;74.70;;;-151.14;100.00;62537.16;4222342;33;19986;-85
2022/09/16 10:08:18;;;;;;;;;;;19.00;74.60;;;-151.14;100.00;62537.16;4246407;33;20185;-84
2022/09/16 10:10:51;;;;;;;;;;;19.00;74.50;;;-151.14;100.00;62537.16;4223475;33;19911;-84
2022/09/16 10:13:20;;;;;;;;;;;19.00;74.60;;;-151.14;100.00;62537.16;4270185;33;20203;-85
2022/09/16 10:15:50;;;;;;;;;;;19.00;74.60;;;18.18;100.00;62537.16;4246232;33;19910;-85
2022/09/16 10:18:25;;;;;;;;;;;19.00;74.80;;;-151.14;100.00;62537.16;4244977;33;19903;-85
2022/09/16 10:21:04;;;;;;;;;;;19.00;74.80;;;-151.14;100.00;62537.16;4243495;33;19909;-85
2022/09/16 10:23:33;;;;;;;;;;;19.00;74.90;;;-151.14;100.00;62537.16;4223788;33;19977;-85
2022/09/16 10:26:20;;;;;;;;;;;19.00;74.80;;;-151.14;100.00;62537.16;4223439;33;20118;-85
2022/09/16 10:29:00;;;;;;;;;;;19.00;75.00;;;-151.14;100.00;62537.16;4246427;33;20118;-85
2022/09/16 10:31:36;;;;;;;;;;;19.00;75.30;;;-151.14;100.00;62537.16;4223110;33;19903;-85
2022/09/16 10:34:12;;;;;;;;;;;19.00;75.30;;;18.22;100.00;62537.16;4219066;34;19910;-85
2022/09/16 10:36:40;;;;;;;;;;;19.00;75.20;;;-151.14;100.00;62537.16;4219256;34;19903;-85
2022/09/16 10:39:22;;;;;;;;;;;19.00;75.20;;;-151.14;100.00;62537.16;4195838;34;19903;-85
2022/09/16 10:41:51;;;;;;;;;;;19.00;75.20;;;-151.14;100.00;62537.16;4196171;34;19910;-85
2022/09/16 10:44:23;;;;;;;;;;;19.00;75.20;;;102.80;100.00;62537.16;4210552;33;19902;-86
2022/09/16 10:46:56;;;;;;;;;;;19.00;75.20;;;60.43;100.00;62537.16;4223230;33;19902;-85
2022/09/16 10:49:31;;;;;;;;;;;19.10;75.30;;;60.43;100.00;62537.16;4223707;33;19903;-85
2022/09/16 10:52:09;;;;;;;;;;;19.00;75.20;;;39.25;100.00;62537.16;4247091;33;19902;-84
2022/09/16 10:54:38;;;;;;;;;;;19.10;75.40;;;60.43;100.00;62537.16;4223572;33;19903;-85
2022/09/16 10:57:23;;;;;;;;;;;19.10;75.50;;;102.80;100.00;62537.16;4223231;33;19902;-85
2022/09/16 11:00:00;;;;;;;;;;;19.10;75.40;;;28.66;100.00;62537.16;4261371;33;19910;-85
2022/09/16 11:03:22;;;;;;;;;;;19.10;75.60;;;102.80;100.00;62537.16;4270540;33;20114;-85
2022/09/16 11:06:00;;;;;;;;;;;19.10;75.50;;;60.43;100.00;62537.16;4162371;34;19904;-85
2022/09/16 11:08:41;;;;;;;;;;;19.10;75.50;;;18.31;100.00;62537.16;4140673;34;19904;-84
2022/09/16 11:11:14;;;;;;;;;;;19.10;75.40;;;60.43;100.00;62537.16;4215460;33;19914;-85
2022/09/16 11:13:49;;;;;;;;;;;19.10;75.50;;;-151.14;100.00;62537.16;4246888;33;20091;-85
2022/09/16 11:16:31;;;;;;;;;;;19.10;75.50;;;60.43;100.00;62537.16;4270419;33;19903;-85
2022/09/16 11:19:06;;;;;;;;;;;19.10;75.70;;;60.43;100.00;62537.16;4222047;33;19903;-85
2022/09/16 11:22:02;;;;;;;;;;;19.10;75.70;;;102.80;100.00;62537.16;4222450;33;19909;-85
2022/09/16 11:24:53;;;;;;;;;;;19.10;75.60;;;-151.14;100.00;62537.16;4264070;33;19902;-85